Arctic Taglu — CY8968 — position and weather

sailwx.info

Track history (hours):
 
Tides and Currents Weather Stations Pressure Air Temp Water Temp Dewpoint Dewpoint Depression Visibility Wind Speed Wind Dir Waves Ship Positions

Arctic Taglu

Last reported at 2016-Dec-09 07:33 UTC. Time now 2016-Dec-09 07:54 UTC.
Position N 49°09' W 123°02'.

Length 33 m; draft 6 m.

Type: Tug. MMSI: 316003483.

Date/timePositionNaut miles runAvg speedWind from/ knotsBaromVisibWave heightAir tempDewpointWater temp
2016-Dec-09 07:33N 49°09' W 123°02'2 1.8
2016-Dec-09 06:33N 49°07' W 123°04'7 7.5
2016-Dec-09 05:33N 49°07' W 123°16'7 7.2
2016-Dec-09 04:33N 49°00' W 123°14'8 7.4
2016-Dec-09 03:32N 48°53' W 123°18'9 7.3
2016-Dec-09 02:21N 48°45' W 123°23'3 1.5
2016-Dec-09 00:04N 48°41' W 123°24'13 8.8
2016-Dec-08 22:33N 48°54' W 123°16'9 9.1
2016-Dec-08 21:33N 49°03' W 123°19'7 6.7
2016-Dec-08 20:33N 49°07' W 123°11'6 6.1
2016-Dec-08 19:33N 49°09' W 123°02'0 0.0
2016-Dec-08 18:33N 49°09' W 123°02'3 3.2
2016-Dec-08 17:33N 49°07' W 123°06'9 8.6
2016-Dec-08 16:33N 49°06' W 123°19'10 9.8
2016-Dec-08 15:34N 48°57' W 123°11'9 9.2
2016-Dec-08 14:33N 48°51' W 123°21'9 8.5
2016-Dec-08 13:29N 48°42' W 123°26'4 1.8
2016-Dec-08 11:33N 48°43' W 123°21'9 9.4
2016-Dec-08 10:33N 48°52' W 123°19'10 9.7
2016-Dec-08 09:33N 49°02' W 123°19'8 7.5
2016-Dec-08 08:33N 49°07' W 123°11'6 5.9
2016-Dec-08 07:33N 49°09' W 123°02'0 0.0
2016-Dec-08 06:33N 49°09' W 123°02'7 7.0
2016-Dec-08 05:33N 49°08' W 123°13'6 6.4
2016-Dec-08 04:33N 49°02' W 123°17'9 8.8
2016-Dec-08 03:33N 48°53' W 123°18'9 8.5
2016-Dec-08 02:33N 48°45' W 123°23'4 1.7
2016-Dec-08 00:23N 48°42' W 123°24'8 9.4
2016-Dec-07 23:32N 48°49' W 123°21'9 9.5
2016-Dec-07 22:33N 48°58' W 123°19'9 8.9
2016-Dec-07 21:33N 49°07' W 123°16'8 8.5
2016-Dec-07 20:33N 49°08' W 123°03'1 1.0
2016-Dec-07 19:33N 49°09' W 123°02'1 0.9
2016-Dec-07 18:33N 49°08' W 123°03'1 0.5
2016-Dec-07 17:33N 49°08' W 123°04'3 3.5
2016-Dec-07 16:33N 49°06' W 123°09'7 7.1
2016-Dec-07 15:34N 49°06' W 123°20'1010.2
2016-Dec-07 14:33N 48°55' W 123°17'9 8.9
2016-Dec-07 13:33N 48°47' W 123°21'6 2.4
2016-Dec-07 11:05N 48°41' W 123°24'4 8.0
2016-Dec-07 10:32N 48°45' W 123°21'9 9.2
2016-Dec-07 09:33N 48°54' W 123°18'9 9.3
2016-Dec-07 08:33N 49°03' W 123°20'9 8.5
2016-Dec-07 07:33N 49°07' W 123°08'4 4.3
2016-Dec-07 06:33N 49°09' W 123°02'0 0.0
2016-Dec-07 05:33N 49°09' W 123°02'0 0.0
2016-Dec-07 04:33N 49°09' W 123°02'0 0.0
2016-Dec-07 03:33N 49°09' W 123°02'0 0.0
2016-Dec-07 02:33N 49°09' W 123°02'0 0.0
2016-Dec-07 01:33N 49°09' W 123°02'0 0.0
2016-Dec-07 00:33N 49°09' W 123°02'0 0.0
2016-Dec-06 23:33N 49°09' W 123°02'0 0.0
2016-Dec-06 22:33N 49°09' W 123°02'0 0.0
2016-Dec-06 21:33N 49°09' W 123°02'0 0.0
2016-Dec-06 20:33N 49°09' W 123°02'1 0.4
2016-Dec-06 18:33N 49°08' W 123°03'0 0.0
2016-Dec-06 17:33N 49°08' W 123°03'1 1.3
2016-Dec-06 16:33N 49°07' W 123°05'8 7.7
2016-Dec-06 15:33N 49°07' W 123°16'9 9.4
2016-Dec-06 14:33N 48°58' W 123°19'10 9.2
2016-Dec-06 13:25N 48°47' W 123°21'3 1.2
2016-Dec-06 10:32N 48°44' W 123°21'9 9.2
2016-Dec-06 09:33N 48°53' W 123°18'1010.0
2016-Dec-06 08:33N 49°03' W 123°20'9 8.8
2016-Dec-06 07:33N 49°07' W 123°08'4 4.2
2016-Dec-06 06:33N 49°09' W 123°02'0 0.0
2016-Dec-06 05:33N 49°09' W 123°02'  
2016-Dec-03 19:27N 49°09' W 123°02'0 0.1
2016-Dec-03 18:33N 49°09' W 123°02'0 0.0
2016-Dec-03 17:33N 49°09' W 123°02'1 1.1
2016-Dec-03 16:33N 49°08' W 123°03'9 9.1
2016-Dec-03 15:33N 49°07' W 123°17'10 9.9
2016-Dec-03 14:33N 48°57' W 123°18'9 9.3
2016-Dec-03 13:33N 48°47' W 123°21'7 6.4
2016-Dec-03 12:32N 48°41' W 123°24'0 0.0
2016-Dec-03 11:33N 48°41' W 123°24'5 5.2
2016-Dec-03 10:33N 48°46' W 123°21'7 6.6
2016-Dec-03 09:33N 48°52' W 123°18'10 9.8
2016-Dec-03 08:33N 49°02' W 123°19'9 9.0
2016-Dec-03 07:33N 49°07' W 123°07'4 4.1
2016-Dec-03 06:33N 49°09' W 123°02'0 0.0
2016-Dec-03 05:33N 49°09' W 123°02'0 0.0
2016-Dec-03 04:33N 49°09' W 123°02'0 0.0
2016-Dec-03 03:33N 49°09' W 123°02'0 0.0
2016-Dec-03 02:33N 49°09' W 123°02'0 0.0
2016-Dec-03 01:33N 49°09' W 123°02'0 0.0
2016-Dec-03 00:33N 49°09' W 123°02'0 0.0
2016-Dec-02 23:33N 49°09' W 123°02'0 0.0
2016-Dec-02 22:33N 49°09' W 123°02'0 0.0
2016-Dec-02 21:33N 49°09' W 123°02'0 0.0
2016-Dec-02 20:33N 49°09' W 123°02'0 0.0
2016-Dec-02 19:33N 49°09' W 123°02'0 0.0
2016-Dec-02 18:33N 49°09' W 123°02'0 0.0
2016-Dec-02 17:33N 49°09' W 123°02'1 1.4
2016-Dec-02 16:33N 49°08' W 123°04'9 9.4
2016-Dec-02 15:33N 49°06' W 123°18'10 9.8
2016-Dec-02 14:33N 48°57' W 123°18'9 8.7
2016-Dec-02 13:33N 48°48' W 123°21'7 6.9
2016-Dec-02 12:33N 48°41' W 123°24'0 0.0
2016-Dec-02 11:30N 48°41' W 123°24'7 6.9
2016-Dec-02 10:33N 48°47' W 123°21'6 6.0
2016-Dec-02 09:33N 48°53' W 123°18'9 9.2
2016-Dec-02 08:33N 49°02' W 123°19'9 8.5
2016-Dec-02 07:33N 49°07' W 123°08'4 4.4
2016-Dec-02 06:33N 49°09' W 123°02'0 0.0
2016-Dec-02 05:33N 49°09' W 123°02'0 0.0
2016-Dec-02 04:33N 49°09' W 123°02'0 0.0
2016-Dec-02 03:33N 49°09' W 123°02'0 0.0
2016-Dec-02 02:33N 49°09' W 123°02'0 0.0
2016-Dec-02 01:33N 49°09' W 123°02'0 0.0
2016-Dec-02 00:33N 49°09' W 123°02'0 0.0
2016-Dec-01 23:33N 49°09' W 123°02'0 0.0
2016-Dec-01 22:33N 49°09' W 123°02'0 0.0
2016-Dec-01 21:33N 49°09' W 123°02'0 0.0
2016-Dec-01 20:33N 49°09' W 123°02'0 0.0
2016-Dec-01 19:33N 49°09' W 123°02'0 0.0
2016-Dec-01 18:33N 49°09' W 123°02'2 1.7
2016-Dec-01 17:33N 49°08' W 123°04'3 3.5
2016-Dec-01 16:33N 49°07' W 123°09'7 6.8
2016-Dec-01 15:34N 49°06' W 123°20'10 9.6
2016-Dec-01 14:33N 48°56' W 123°18'10 8.0
2016-Dec-01 13:16N 48°46' W 123°22'5 1.7
2016-Dec-01 10:18N 48°51' W 123°21'4 5.5
2016-Dec-01 09:33N 48°55' W 123°18'10 9.6
2016-Dec-01 08:33N 49°04' W 123°20'1010.3
2016-Dec-01 07:33N 49°07' W 123°05'2 2.4
2016-Dec-01 06:33N 49°09' W 123°02'0 0.0
2016-Dec-01 05:33N 49°09' W 123°02'0 0.0
2016-Dec-01 04:33N 49°09' W 123°02'0 0.0
2016-Dec-01 03:33N 49°09' W 123°02'0 0.0
2016-Dec-01 02:33N 49°09' W 123°02'0 0.0
2016-Dec-01 01:33N 49°09' W 123°02'0 0.0
2016-Dec-01 00:33N 49°09' W 123°02'0 0.0
2016-Nov-30 23:33N 49°09' W 123°02'0 0.0
2016-Nov-30 22:33N 49°09' W 123°02'0 0.0
2016-Nov-30 21:33N 49°09' W 123°02'0 0.0
2016-Nov-30 20:33N 49°09' W 123°02'0 0.0
2016-Nov-30 19:33N 49°09' W 123°02'0 0.0
2016-Nov-30 18:33N 49°09' W 123°02'0 0.0
2016-Nov-30 17:33N 49°09' W 123°02'6 5.6
2016-Nov-30 16:33N 49°07' W 123°10'6 6.4
2016-Nov-30 15:33N 49°03' W 123°18'9 9.3
2016-Nov-30 14:33N 48°54' W 123°18'8 8.1
2016-Nov-30 13:30N 48°46' W 123°22'4 2.2
2016-Nov-30 11:33N 48°42' W 123°24'9 7.3
2016-Nov-30 10:18N 48°50' W 123°21'4 5.2
2016-Nov-30 09:31N 48°54' W 123°18'8 8.3
2016-Nov-30 08:33N 49°02' W 123°20'8 8.0
2016-Nov-30 07:33N 49°07' W 123°10'5 5.4
2016-Nov-30 06:33N 49°09' W 123°02'0 0.1
2016-Nov-30 05:33N 49°09' W 123°02'0 0.0
2016-Nov-30 04:33N 49°09' W 123°02'0 0.0
2016-Nov-30 03:33N 49°09' W 123°02'0 0.0
2016-Nov-30 02:33N 49°09' W 123°02'0 0.0
2016-Nov-30 01:33N 49°09' W 123°02'0 0.0
2016-Nov-30 00:33N 49°09' W 123°02'0 0.0
2016-Nov-29 23:33N 49°09' W 123°02'0 0.0
2016-Nov-29 22:33N 49°09' W 123°02'0 0.0
2016-Nov-29 21:33N 49°09' W 123°02'0 0.0
2016-Nov-29 20:33N 49°09' W 123°02'0 0.0
2016-Nov-29 19:33N 49°09' W 123°02'0 0.0
2016-Nov-29 18:33N 49°09' W 123°02'0 0.0
2016-Nov-29 17:33N 49°09' W 123°02'3 3.5
2016-Nov-29 16:33N 49°07' W 123°06'8 8.5
2016-Nov-29 15:33N 49°06' W 123°19'9 8.8
2016-Nov-29 14:33N 48°57' W 123°18'7 6.7
2016-Nov-29 13:33N 48°50' W 123°21'9 8.8
2016-Nov-29 12:33N 48°42' W 123°24'0 0.3
2016-Nov-29 11:09N 48°42' W 123°24'5 7.9
2016-Nov-29 10:29N 48°46' W 123°21'6 6.3
2016-Nov-29 09:33N 48°52' W 123°18'9 9.4
2016-Nov-29 08:33N 49°01' W 123°20'  
Track history (hours):
 
Tides and Currents Weather Stations Pressure Air Temp Water Temp Dewpoint Dewpoint Depression Visibility Wind Speed Wind Dir Waves Ship Positions

Arctic Taglu

Last reported at 2016-Dec-09 07:33 UTC. Time now 2016-Dec-09 07:54 UTC.
Position N 49°09' W 123°02'.

Length 33 m; draft 6 m.

Type: Tug. MMSI: 316003483.

Date/timePositionNaut miles runAvg speedWind from/ knotsBaromVisibWave heightAir tempDewpointWater temp
2016-Dec-09 07:33N 49°09' W 123°02'2 1.8
2016-Dec-09 06:33N 49°07' W 123°04'7 7.5
2016-Dec-09 05:33N 49°07' W 123°16'7 7.2
2016-Dec-09 04:33N 49°00' W 123°14'8 7.4
2016-Dec-09 03:32N 48°53' W 123°18'9 7.3
2016-Dec-09 02:21N 48°45' W 123°23'3 1.5
2016-Dec-09 00:04N 48°41' W 123°24'13 8.8
2016-Dec-08 22:33N 48°54' W 123°16'9 9.1
2016-Dec-08 21:33N 49°03' W 123°19'7 6.7
2016-Dec-08 20:33N 49°07' W 123°11'6 6.1
2016-Dec-08 19:33N 49°09' W 123°02'0 0.0
2016-Dec-08 18:33N 49°09' W 123°02'3 3.2
2016-Dec-08 17:33N 49°07' W 123°06'9 8.6
2016-Dec-08 16:33N 49°06' W 123°19'10 9.8
2016-Dec-08 15:34N 48°57' W 123°11'9 9.2
2016-Dec-08 14:33N 48°51' W 123°21'9 8.5
2016-Dec-08 13:29N 48°42' W 123°26'4 1.8
2016-Dec-08 11:33N 48°43' W 123°21'9 9.4
2016-Dec-08 10:33N 48°52' W 123°19'10 9.7
2016-Dec-08 09:33N 49°02' W 123°19'8 7.5
2016-Dec-08 08:33N 49°07' W 123°11'6 5.9
2016-Dec-08 07:33N 49°09' W 123°02'0 0.0
2016-Dec-08 06:33N 49°09' W 123°02'7 7.0
2016-Dec-08 05:33N 49°08' W 123°13'6 6.4
2016-Dec-08 04:33N 49°02' W 123°17'9 8.8
2016-Dec-08 03:33N 48°53' W 123°18'9 8.5
2016-Dec-08 02:33N 48°45' W 123°23'4 1.7
2016-Dec-08 00:23N 48°42' W 123°24'8 9.4
2016-Dec-07 23:32N 48°49' W 123°21'9 9.5
2016-Dec-07 22:33N 48°58' W 123°19'9 8.9
2016-Dec-07 21:33N 49°07' W 123°16'8 8.5
2016-Dec-07 20:33N 49°08' W 123°03'1 1.0
2016-Dec-07 19:33N 49°09' W 123°02'1 0.9
2016-Dec-07 18:33N 49°08' W 123°03'1 0.5
2016-Dec-07 17:33N 49°08' W 123°04'3 3.5
2016-Dec-07 16:33N 49°06' W 123°09'7 7.1
2016-Dec-07 15:34N 49°06' W 123°20'1010.2
2016-Dec-07 14:33N 48°55' W 123°17'9 8.9
2016-Dec-07 13:33N 48°47' W 123°21'6 2.4
2016-Dec-07 11:05N 48°41' W 123°24'4 8.0
2016-Dec-07 10:32N 48°45' W 123°21'9 9.2
2016-Dec-07 09:33N 48°54' W 123°18'9 9.3
2016-Dec-07 08:33N 49°03' W 123°20'9 8.5
2016-Dec-07 07:33N 49°07' W 123°08'4 4.3
2016-Dec-07 06:33N 49°09' W 123°02'0 0.0
2016-Dec-07 05:33N 49°09' W 123°02'0 0.0
2016-Dec-07 04:33N 49°09' W 123°02'0 0.0
2016-Dec-07 03:33N 49°09' W 123°02'0 0.0
2016-Dec-07 02:33N 49°09' W 123°02'0 0.0
2016-Dec-07 01:33N 49°09' W 123°02'0 0.0
2016-Dec-07 00:33N 49°09' W 123°02'0 0.0
2016-Dec-06 23:33N 49°09' W 123°02'0 0.0
2016-Dec-06 22:33N 49°09' W 123°02'0 0.0
2016-Dec-06 21:33N 49°09' W 123°02'0 0.0
2016-Dec-06 20:33N 49°09' W 123°02'1 0.4
2016-Dec-06 18:33N 49°08' W 123°03'0 0.0
2016-Dec-06 17:33N 49°08' W 123°03'1 1.3
2016-Dec-06 16:33N 49°07' W 123°05'8 7.7
2016-Dec-06 15:33N 49°07' W 123°16'9 9.4
2016-Dec-06 14:33N 48°58' W 123°19'10 9.2
2016-Dec-06 13:25N 48°47' W 123°21'3 1.2
2016-Dec-06 10:32N 48°44' W 123°21'9 9.2
2016-Dec-06 09:33N 48°53' W 123°18'1010.0
2016-Dec-06 08:33N 49°03' W 123°20'9 8.8
2016-Dec-06 07:33N 49°07' W 123°08'4 4.2
2016-Dec-06 06:33N 49°09' W 123°02'0 0.0
2016-Dec-06 05:33N 49°09' W 123°02'  
2016-Dec-03 19:27N 49°09' W 123°02'0 0.1
2016-Dec-03 18:33N 49°09' W 123°02'0 0.0
2016-Dec-03 17:33N 49°09' W 123°02'1 1.1
2016-Dec-03 16:33N 49°08' W 123°03'9 9.1
2016-Dec-03 15:33N 49°07' W 123°17'10 9.9
2016-Dec-03 14:33N 48°57' W 123°18'9 9.3
2016-Dec-03 13:33N 48°47' W 123°21'7 6.4
2016-Dec-03 12:32N 48°41' W 123°24'0 0.0
2016-Dec-03 11:33N 48°41' W 123°24'5 5.2
2016-Dec-03 10:33N 48°46' W 123°21'7 6.6
2016-Dec-03 09:33N 48°52' W 123°18'10 9.8
2016-Dec-03 08:33N 49°02' W 123°19'9 9.0
2016-Dec-03 07:33N 49°07' W 123°07'4 4.1
2016-Dec-03 06:33N 49°09' W 123°02'0 0.0
2016-Dec-03 05:33N 49°09' W 123°02'0 0.0
2016-Dec-03 04:33N 49°09' W 123°02'0 0.0
2016-Dec-03 03:33N 49°09' W 123°02'0 0.0
2016-Dec-03 02:33N 49°09' W 123°02'0 0.0
2016-Dec-03 01:33N 49°09' W 123°02'0 0.0
2016-Dec-03 00:33N 49°09' W 123°02'0 0.0
2016-Dec-02 23:33N 49°09' W 123°02'0 0.0
2016-Dec-02 22:33N 49°09' W 123°02'0 0.0
2016-Dec-02 21:33N 49°09' W 123°02'0 0.0
2016-Dec-02 20:33N 49°09' W 123°02'0 0.0
2016-Dec-02 19:33N 49°09' W 123°02'0 0.0
2016-Dec-02 18:33N 49°09' W 123°02'0 0.0
2016-Dec-02 17:33N 49°09' W 123°02'1 1.4
2016-Dec-02 16:33N 49°08' W 123°04'9 9.4
2016-Dec-02 15:33N 49°06' W 123°18'10 9.8
2016-Dec-02 14:33N 48°57' W 123°18'9 8.7
2016-Dec-02 13:33N 48°48' W 123°21'7 6.9
2016-Dec-02 12:33N 48°41' W 123°24'0 0.0
2016-Dec-02 11:30N 48°41' W 123°24'7 6.9
2016-Dec-02 10:33N 48°47' W 123°21'6 6.0
2016-Dec-02 09:33N 48°53' W 123°18'9 9.2
2016-Dec-02 08:33N 49°02' W 123°19'9 8.5
2016-Dec-02 07:33N 49°07' W 123°08'4 4.4
2016-Dec-02 06:33N 49°09' W 123°02'0 0.0
2016-Dec-02 05:33N 49°09' W 123°02'0 0.0
2016-Dec-02 04:33N 49°09' W 123°02'0 0.0
2016-Dec-02 03:33N 49°09' W 123°02'0 0.0
2016-Dec-02 02:33N 49°09' W 123°02'0 0.0
2016-Dec-02 01:33N 49°09' W 123°02'0 0.0
2016-Dec-02 00:33N 49°09' W 123°02'0 0.0
2016-Dec-01 23:33N 49°09' W 123°02'0 0.0
2016-Dec-01 22:33N 49°09' W 123°02'0 0.0
2016-Dec-01 21:33N 49°09' W 123°02'0 0.0
2016-Dec-01 20:33N 49°09' W 123°02'0 0.0
2016-Dec-01 19:33N 49°09' W 123°02'0 0.0
2016-Dec-01 18:33N 49°09' W 123°02'2 1.7
2016-Dec-01 17:33N 49°08' W 123°04'3 3.5
2016-Dec-01 16:33N 49°07' W 123°09'7 6.8
2016-Dec-01 15:34N 49°06' W 123°20'10 9.6
2016-Dec-01 14:33N 48°56' W 123°18'10 8.0
2016-Dec-01 13:16N 48°46' W 123°22'5 1.7
2016-Dec-01 10:18N 48°51' W 123°21'4 5.5
2016-Dec-01 09:33N 48°55' W 123°18'10 9.6
2016-Dec-01 08:33N 49°04' W 123°20'1010.3
2016-Dec-01 07:33N 49°07' W 123°05'2 2.4
2016-Dec-01 06:33N 49°09' W 123°02'0 0.0
2016-Dec-01 05:33N 49°09' W 123°02'0 0.0
2016-Dec-01 04:33N 49°09' W 123°02'0 0.0
2016-Dec-01 03:33N 49°09' W 123°02'0 0.0
2016-Dec-01 02:33N 49°09' W 123°02'0 0.0
2016-Dec-01 01:33N 49°09' W 123°02'0 0.0
2016-Dec-01 00:33N 49°09' W 123°02'0 0.0
2016-Nov-30 23:33N 49°09' W 123°02'0 0.0
2016-Nov-30 22:33N 49°09' W 123°02'0 0.0
2016-Nov-30 21:33N 49°09' W 123°02'0 0.0
2016-Nov-30 20:33N 49°09' W 123°02'0 0.0
2016-Nov-30 19:33N 49°09' W 123°02'0 0.0
2016-Nov-30 18:33N 49°09' W 123°02'0 0.0
2016-Nov-30 17:33N 49°09' W 123°02'6 5.6
2016-Nov-30 16:33N 49°07' W 123°10'6 6.4
2016-Nov-30 15:33N 49°03' W 123°18'9 9.3
2016-Nov-30 14:33N 48°54' W 123°18'8 8.1
2016-Nov-30 13:30N 48°46' W 123°22'4 2.2
2016-Nov-30 11:33N 48°42' W 123°24'9 7.3
2016-Nov-30 10:18N 48°50' W 123°21'4 5.2
2016-Nov-30 09:31N 48°54' W 123°18'8 8.3
2016-Nov-30 08:33N 49°02' W 123°20'8 8.0
2016-Nov-30 07:33N 49°07' W 123°10'5 5.4
2016-Nov-30 06:33N 49°09' W 123°02'0 0.1
2016-Nov-30 05:33N 49°09' W 123°02'0 0.0
2016-Nov-30 04:33N 49°09' W 123°02'0 0.0
2016-Nov-30 03:33N 49°09' W 123°02'0 0.0
2016-Nov-30 02:33N 49°09' W 123°02'0 0.0
2016-Nov-30 01:33N 49°09' W 123°02'0 0.0
2016-Nov-30 00:33N 49°09' W 123°02'0 0.0
2016-Nov-29 23:33N 49°09' W 123°02'0 0.0
2016-Nov-29 22:33N 49°09' W 123°02'0 0.0
2016-Nov-29 21:33N 49°09' W 123°02'0 0.0
2016-Nov-29 20:33N 49°09' W 123°02'0 0.0
2016-Nov-29 19:33N 49°09' W 123°02'0 0.0
2016-Nov-29 18:33N 49°09' W 123°02'0 0.0
2016-Nov-29 17:33N 49°09' W 123°02'3 3.5
2016-Nov-29 16:33N 49°07' W 123°06'8 8.5
2016-Nov-29 15:33N 49°06' W 123°19'9 8.8
2016-Nov-29 14:33N 48°57' W 123°18'7 6.7
2016-Nov-29 13:33N 48°50' W 123°21'9 8.8
2016-Nov-29 12:33N 48°42' W 123°24'0 0.3
2016-Nov-29 11:09N 48°42' W 123°24'5 7.9
2016-Nov-29 10:29N 48°46' W 123°21'6 6.3
2016-Nov-29 09:33N 48°52' W 123°18'9 9.4
2016-Nov-29 08:33N 49°01' W 123°20'  

Dump ship's entire track history